Lindenwald, Ohio
Current Conditions -  °F | °C
As of 1:53 PM on Thursday 18 Dec 2014 (Local Time) from KHAO Reporting Station
Overcast Overcast  
Wind Chill: 30°   Ceiling: 2500
Heat Index: 30°   Visibility: 10mi
Dew Point: 21°   Wind: 3mph
Humidity: 69%   Direction: NA
Pressure: 30.25"   Gusts: NA
Location:  39.3622°N, 84.5372°W
Report Text: KHAO 181853Z AUTO VRB03KT 10SM OVC025 M01/M06 A3025 RMK AO2 SLP252 T10111061
Loading
Personal Weather Stations






























Interactive Weather Map New forecast layout! Learn more

10-Day Weather Forecast

Advertisements
Track Severe Weather on mobile